| time (UTC) | temp F | wind direction | speed MPH | gust MPH | rain 1hr in | rain 24hr in | rain mn in | humidity % | barometer mb |
| 20260503202527 | 76 | 333 | 2.0 | 6.0 | 0.00 | 0.00 | 0.00 | 48 | 1010.2 |
| 20260503202020 | 76 | 236 | 2.0 | 6.0 | 0.00 | 0.00 | 0.00 | 49 | 1010.2 |
| 20260503201513 | 76 | 292 | 4.0 | 6.0 | 0.00 | 0.00 | 0.00 | 48 | 1010.2 |
| 20260503201007 | 75 | 90 | 2.0 | 6.0 | 0.00 | 0.00 | 0.00 | 48 | 1010.5 |
| 20260503200500 | 74 | 216 | 1.0 | 7.0 | 0.00 | 0.00 | 0.00 | 49 | 1010.2 |
| 20260503200220 | 74 | 165 | 2.0 | 7.0 | 0.00 | 0.00 | 0.00 | 51 | 1010.5 |
| 20260503195447 | 74 | 287 | 4.0 | 7.0 | 0.00 | 0.00 | 0.00 | 49 | 1010.5 |
| 20260503194939 | 74 | 252 | 1.0 | 7.0 | 0.00 | 0.00 | 0.00 | 50 | 1010.5 |
| 20260503194433 | 73 | 255 | 1.0 | 7.0 | 0.00 | 0.00 | 0.00 | 52 | 1010.5 |
| 20260503193926 | 75 | 212 | 1.0 | 10.0 | 0.00 | 0.00 | 0.00 | 50 | 1010.5 |
| 20260503193419 | 73 | 325 | 1.0 | 10.0 | 0.00 | 0.00 | 0.00 | 52 | 1010.9 |
| 20260503192914 | 73 | 246 | 2.0 | 9.0 | 0.00 | 0.00 | 0.00 | 54 | 1010.9 |
| 20260503192406 | 73 | 237 | 2.0 | 8.0 | 0.00 | 0.00 | 0.00 | 53 | 1010.9 |
| 20260503192120 | 74 | 230 | 0.0 | 9.0 | 0.00 | 0.00 | 0.00 | 53 | 1010.9 |
| 20260503191353 | 73 | 239 | 1.0 | 9.0 | 0.00 | 0.00 | 0.00 | 54 | 1010.5 |
| 20260503190847 | 73 | 241 | 1.0 | 7.0 | 0.00 | 0.00 | 0.00 | 53 | 1010.9 |
| 20260503185833 | 73 | 320 | 6.0 | 9.0 | 0.00 | 0.00 | 0.00 | 54 | 1010.9 |
| 20260503185327 | 72 | 352 | 5.0 | 9.0 | 0.00 | 0.00 | 0.00 | 53 | 1010.9 |
| 20260503184820 | 72 | 324 | 5.0 | 7.0 | 0.00 | 0.00 | 0.00 | 54 | 1010.9 |
| 20260503184312 | 73 | 312 | 1.0 | 7.0 | 0.00 | 0.00 | 0.00 | 54 | 1011.2 |
| 20260503183806 | 73 | 254 | 1.0 | 8.0 | 0.00 | 0.00 | 0.00 | 54 | 1011.2 |
| 20260503183300 | 73 | 317 | 3.0 | 8.0 | 0.00 | 0.00 | 0.00 | 52 | 1011.2 |
| 20260503182753 | 73 | 331 | 4.0 | 7.0 | 0.00 | 0.00 | 0.00 | 53 | 1011.2 |
| 20260503182246 | 74 | 356 | 2.0 | 6.0 | 0.00 | 0.00 | 0.00 | 52 | 1011.2 |
| 20260503181740 | 74 | 248 | 1.0 | 6.0 | 0.00 | 0.00 | 0.00 | 53 | 1011.6 |
| 20260503181233 | 75 | 48 | 2.0 | 4.0 | 0.00 | 0.00 | 0.00 | 53 | 1011.6 |
| 20260503180727 | 75 | 226 | 1.0 | 3.0 | 0.00 | 0.00 | 0.00 | 53 | 1011.6 |
| 20260503180220 | 73 | 201 | 1.0 | 3.0 | 0.00 | 0.00 | 0.00 | 54 | 1011.2 |
| 20260503175713 | 73 | 207 | 1.0 | 7.0 | 0.00 | 0.00 | 0.00 | 56 | 1011.2 |
| 20260503175206 | 72 | 170 | 1.0 | 7.0 | 0.00 | 0.00 | 0.00 | 55 | 1011.6 |
| 20260503175146 | 74 | 276 | 0.0 | 3.0 | 0.00 | 0.00 | 0.00 | 54 | 1011.6 |
| 20260503174413 | 73 | 22 | 2.0 | 3.0 | 0.00 | 0.00 | 0.00 | 56 | 1011.9 |
| 20260503173907 | 73 | 215 | 2.0 | 3.0 | 0.00 | 0.00 | 0.00 | 55 | 1011.6 |
| 20260503173139 | 72 | 292 | 2.0 | 4.0 | 0.00 | 0.00 | 0.00 | 56 | 1011.6 |
| 20260503172633 | 71 | 309 | 3.0 | 6.0 | 0.00 | 0.00 | 0.00 | 58 | 1011.6 |
| 20260503172125 | 70 | 262 | 2.0 | 6.0 | 0.00 | 0.00 | 0.00 | 58 | 1011.6 |
| 20260503171620 | 71 | 131 | 1.0 | 4.0 | 0.00 | 0.00 | 0.00 | 58 | 1011.6 |
| 20260503171337 | 70 | 220 | 0.0 | 4.0 | 0.00 | 0.00 | 0.00 | 59 | 1011.6 |
| 20260503170605 | 71 | 305 | 1.0 | 3.0 | 0.00 | 0.00 | 0.00 | 59 | 1011.6 |
| 20260503150831 | 65 | 190 | 0.0 | 0.0 | 0.00 | 0.00 | 0.00 | 74 | 1012.2 |
| 20260503150324 | 64 | 187 | 0.0 | 0.0 | 0.00 | 0.00 | 0.00 | 75 | 1011.9 |
| 20260503140205 | 55 | 181 | 0.0 | 0.0 | 0.00 | 0.00 | 0.00 | 93 | 1011.9 |
| 20260503131058 | 53 | 191 | 0.0 | 0.0 | 0.00 | 0.00 | 0.00 | 95 | 1011.9 |
| 20260503130551 | 53 | 195 | 0.0 | 1.0 | 0.00 | 0.00 | 0.00 | 95 | 1011.6 |
| 20260503130315 | 53 | 182 | 0.0 | 1.0 | 0.00 | 0.00 | 0.00 | 95 | 1011.6 |
| 20260503110818 | 56 | 181 | 0.0 | 1.0 | 0.00 | 0.00 | 0.00 | 90 | 1011.9 |
| 20260503110311 | 56 | 181 | 0.0 | 1.0 | 0.00 | 0.00 | 0.00 | 90 | 1011.9 |
| 20260503100152 | 55 | 202 | 0.0 | 1.0 | 0.00 | 0.02 | 0.00 | 86 | 1012.2 |
| 20260503081431 | 60 | 178 | 0.0 | 3.0 | 0.00 | 0.02 | 0.00 | 71 | 1012.6 |
| 20260503081146 | 60 | 190 | 0.0 | 3.0 | 0.00 | 0.02 | 0.00 | 71 | 1012.2 |
| 20260503080417 | 60 | 186 | 0.0 | 2.0 | 0.00 | 0.02 | 0.00 | 71 | 1012.2 |
| 20260503080136 | 60 | 161 | 0.0 | 2.0 | 0.00 | 0.02 | 0.00 | 71 | 1012.2 |
| 20260503072831 | 62 | 161 | 1.0 | 2.0 | 0.00 | 0.02 | 0.00 | 67 | 1012.2 |
| 20260503072324 | 62 | 122 | 0.0 | 1.0 | 0.00 | 0.02 | 0.00 | 65 | 1012.2 |
| 20260503071817 | 62 | 197 | 0.0 | 1.0 | 0.00 | 0.02 | 0.00 | 64 | 1012.2 |
| 20260503071533 | 63 | 188 | 0.0 | 1.0 | 0.00 | 0.02 | 0.00 | 62 | 1012.2 |
| 20260503070804 | 63 | 190 | 0.0 | 1.0 | 0.00 | 0.02 | 0.00 | 61 | 1012.2 |
| 20260503070516 | 63 | 218 | 0.0 | 1.0 | 0.00 | 0.02 | 0.00 | 59 | 1012.2 |
| 20260503060137 | 68 | 251 | 2.0 | 9.0 | 0.00 | 0.02 | 0.02 | 48 | 1011.9 |
| 20260503055123 | 68 | 345 | 7.0 | 9.0 | 0.00 | 0.02 | 0.02 | 48 | 1011.9 |
| 20260503054617 | 68 | 11 | 3.0 | 11.0 | 0.00 | 0.02 | 0.02 | 47 | 1011.9 |
| 20260503054332 | 68 | 323 | 4.0 | 11.0 | 0.00 | 0.02 | 0.02 | 47 | 1011.9 |
| 20260503053604 | 68 | 334 | 5.0 | 10.0 | 0.00 | 0.02 | 0.02 | 48 | 1011.6 |
| 20260503053057 | 68 | 299 | 5.0 | 10.0 | 0.00 | 0.02 | 0.02 | 48 | 1011.9 |
| 20260503052809 | 68 | 23 | 4.0 | 8.0 | 0.00 | 0.02 | 0.02 | 48 | 1011.9 |
| 20260503052043 | 68 | 338 | 4.0 | 11.0 | 0.00 | 0.02 | 0.02 | 49 | 1012.2 |
| 20260503051536 | 68 | 18 | 6.0 | 11.0 | 0.00 | 0.02 | 0.02 | 48 | 1011.9 |
| 20260503051445 | 68 | 311 | 2.0 | 6.0 | 0.00 | 0.02 | 0.02 | 50 | 1011.9 |
| 20260503051105 | 68 | 10 | 2.0 | 8.0 | 0.00 | 0.02 | 0.02 | 50 | 1011.9 |
| 20260503050017 | 68 | 348 | 1.0 | 6.0 | 0.00 | 0.02 | 0.02 | 52 | 1011.9 |
| 20260503045510 | 68 | 4 | 2.0 | 6.0 | 0.00 | 0.02 | 0.02 | 52 | 1011.9 |
| 20260503045313 | 68 | 3 | 1.0 | 6.0 | 0.00 | 0.02 | 0.02 | 52 | 1011.9 |
| 20260503045200 | 68 | 163 | 1.0 | 6.0 | 0.00 | 0.02 | 0.02 | 53 | 1011.9 |
| 20260503043950 | 68 | 94 | 2.0 | 6.0 | 0.00 | 0.02 | 0.02 | 53 | 1011.6 |
| 20260503043443 | 67 | 26 | 0.0 | 4.0 | 0.00 | 0.02 | 0.02 | 56 | 1011.6 |
| 20260503042937 | 67 | 47 | 3.0 | 7.0 | 0.00 | 0.02 | 0.02 | 56 | 1011.6 |
| 20260503042652 | 67 | 346 | 4.0 | 7.0 | 0.00 | 0.02 | 0.02 | 57 | 1011.6 |
| 20260503042151 | 66 | 161 | 0.0 | 2.0 | 0.00 | 0.02 | 0.02 | 61 | 1011.6 |
| 20260503041417 | 65 | 213 | 1.0 | 2.0 | 0.00 | 0.02 | 0.02 | 63 | 1011.6 |
| 20260503040910 | 64 | 214 | 0.0 | 0.0 | 0.00 | 0.02 | 0.02 | 66 | 1011.6 |
| 20260503040404 | 64 | 199 | 0.0 | 0.0 | 0.00 | 0.02 | 0.02 | 65 | 1011.2 |
| 20260503035857 | 64 | 202 | 0.0 | 1.0 | 0.00 | 0.02 | 0.02 | 65 | 1011.2 |
| 20260503035548 | 64 | 200 | 0.0 | 1.0 | 0.00 | 0.02 | 0.02 | 64 | 1011.2 |
| 20260503035432 | 64 | 201 | 0.0 | 1.0 | 0.00 | 0.02 | 0.02 | 64 | 1011.2 |
| 20260503034336 | 64 | 199 | 0.0 | 1.0 | 0.00 | 0.02 | 0.02 | 64 | 1010.9 |
| 20260503034054 | 64 | 204 | 0.0 | 0.0 | 0.00 | 0.02 | 0.02 | 65 | 1010.9 |
| 20260503033541 | 65 | 217 | 0.0 | 0.0 | 0.00 | 0.02 | 0.02 | 64 | 1011.2 |
| 20260503032816 | 65 | 198 | 0.0 | 2.0 | 0.00 | 0.02 | 0.02 | 63 | 1010.9 |
| 20260503032310 | 66 | 198 | 0.0 | 2.0 | 0.00 | 0.02 | 0.02 | 61 | 1010.5 |
| 20260503031803 | 66 | 196 | 0.0 | 2.0 | 0.00 | 0.02 | 0.02 | 61 | 1010.9 |
| 20260503031257 | 66 | 263 | 1.0 | 2.0 | 0.00 | 0.02 | 0.02 | 60 | 1010.5 |
| 20260503030749 | 67 | 198 | 0.0 | 3.0 | 0.00 | 0.02 | 0.02 | 60 | 1010.5 |
| 20260503030511 | 67 | 218 | 0.0 | 3.0 | 0.00 | 0.02 | 0.02 | 59 | 1010.5 |
| 20260503025736 | 67 | 203 | 1.0 | 3.0 | 0.00 | 0.02 | 0.02 | 59 | 1010.5 |
| 20260503025229 | 67 | 199 | 0.0 | 3.0 | 0.00 | 0.02 | 0.02 | 58 | 1010.5 |
| 20260503024722 | 68 | 249 | 2.0 | 3.0 | 0.00 | 0.02 | 0.02 | 57 | 1010.5 |
| 20260503024216 | 68 | 292 | 1.0 | 4.0 | 0.00 | 0.02 | 0.02 | 57 | 1010.5 |
| 20260503023709 | 68 | 328 | 3.0 | 4.0 | 0.00 | 0.02 | 0.02 | 56 | 1010.5 |
| 20260503023202 | 69 | 202 | 1.0 | 4.0 | 0.00 | 0.02 | 0.02 | 56 | 1010.5 |
| 20260503022655 | 69 | 203 | 0.0 | 4.0 | 0.00 | 0.02 | 0.02 | 56 | 1010.5 |
| 20260503022410 | 70 | 192 | 0.0 | 6.0 | 0.00 | 0.02 | 0.02 | 55 | 1010.5 |
| 20260503021642 | 70 | 272 | 1.0 | 8.0 | 0.00 | 0.02 | 0.02 | 55 | 1010.5 |
| 20260503021135 | 70 | 4 | 3.0 | 8.0 | 0.00 | 0.02 | 0.02 | 54 | 1010.5 |
| 20260503020628 | 70 | 12 | 4.0 | 8.0 | 0.00 | 0.02 | 0.02 | 54 | 1010.5 |
| 20260503020121 | 71 | 253 | 2.0 | 9.0 | 0.00 | 0.02 | 0.02 | 54 | 1010.5 |
| 20260503015615 | 71 | 358 | 3.0 | 9.0 | 0.00 | 0.02 | 0.02 | 53 | 1010.2 |
| 20260503015109 | 71 | 320 | 3.0 | 6.0 | 0.00 | 0.02 | 0.02 | 53 | 1010.5 |
| 20260503014602 | 71 | 165 | 1.0 | 7.0 | 0.00 | 0.02 | 0.02 | 53 | 1010.5 |
| 20260503014551 | 71 | 309 | 4.0 | 7.0 | 0.00 | 0.02 | 0.02 | 52 | 1010.5 |
| 20260503013549 | 72 | 31 | 5.0 | 6.0 | 0.00 | 0.02 | 0.02 | 52 | 1010.5 |
| 20260503013042 | 72 | 247 | 4.0 | 6.0 | 0.00 | 0.02 | 0.02 | 52 | 1010.5 |
| 20260503012535 | 72 | 299 | 2.0 | 7.0 | 0.00 | 0.02 | 0.02 | 52 | 1010.5 |
| 20260503012028 | 73 | 261 | 3.0 | 7.0 | 0.00 | 0.02 | 0.02 | 51 | 1010.5 |
| 20260503011522 | 73 | 319 | 4.0 | 7.0 | 0.00 | 0.02 | 0.02 | 51 | 1010.5 |
| 20260503011015 | 72 | 226 | 1.0 | 8.0 | 0.00 | 0.02 | 0.02 | 51 | 1010.5 |
| 20260503010508 | 73 | 321 | 4.0 | 8.0 | 0.00 | 0.02 | 0.02 | 50 | 1010.5 |
| 20260503010002 | 72 | 357 | 5.0 | 8.0 | 0.00 | 0.02 | 0.02 | 50 | 1010.5 |
| 20260503005718 | 73 | 307 | 3.0 | 7.0 | 0.00 | 0.02 | 0.02 | 50 | 1010.9 |
| 20260503005207 | 73 | 338 | 2.0 | 8.0 | 0.00 | 0.02 | 0.02 | 49 | 1010.9 |
| 20260503004703 | 73 | 20 | 4.0 | 8.0 | 0.00 | 0.02 | 0.02 | 50 | 1010.5 |
| 20260503003935 | 73 | 246 | 3.0 | 7.0 | 0.00 | 0.02 | 0.02 | 51 | 1011.2 |
| 20260503003428 | 73 | 281 | 3.0 | 9.0 | 0.00 | 0.02 | 0.02 | 50 | 1010.9 |
| 20260503002922 | 72 | 291 | 4.0 | 9.0 | 0.00 | 0.02 | 0.02 | 51 | 1010.9 |
| 20260503002415 | 74 | 284 | 2.0 | 6.0 | 0.00 | 0.02 | 0.02 | 49 | 1010.9 |
| 20260503001908 | 73 | 214 | 2.0 | 8.0 | 0.00 | 0.02 | 0.02 | 50 | 1010.9 |
| 20260503001401 | 73 | 249 | 1.0 | 8.0 | 0.00 | 0.02 | 0.02 | 50 | 1010.9 |
| 20260503000854 | 73 | 324 | 3.0 | 6.0 | 0.00 | 0.02 | 0.02 | 50 | 1010.9 |
| 20260503000348 | 73 | 103 | 2.0 | 8.0 | 0.00 | 0.02 | 0.02 | 49 | 1010.9 |
| 20260502235841 | 73 | 208 | 1.0 | 8.0 | 0.00 | 0.02 | 0.02 | 49 | 1010.9 |
| 20260502235554 | 72 | 236 | 3.0 | 11.0 | 0.00 | 0.02 | 0.02 | 50 | 1010.9 |
| 20260502235316 | 72 | 271 | 8.0 | 11.0 | 0.00 | 0.02 | 0.02 | 49 | 1010.9 |
| 20260502234321 | 72 | 6 | 6.0 | 14.0 | 0.00 | 0.02 | 0.02 | 49 | 1011.2 |
| 20260502233814 | 72 | 307 | 6.0 | 14.0 | 0.00 | 0.02 | 0.02 | 49 | 1011.2 |
| 20260502233532 | 72 | 228 | 2.0 | 13.0 | 0.00 | 0.02 | 0.02 | 48 | 1011.6 |
| 20260502233022 | 72 | 116 | 4.0 | 13.0 | 0.00 | 0.02 | 0.02 | 48 | 1011.2 |
| 20260502232254 | 72 | 294 | 2.0 | 14.0 | 0.00 | 0.02 | 0.02 | 50 | 1011.2 |
| 20260502231748 | 72 | 346 | 3.0 | 14.0 | 0.00 | 0.02 | 0.02 | 50 | 1011.6 |
| 20260502231241 | 73 | 256 | 6.0 | 9.0 | 0.00 | 0.02 | 0.02 | 49 | 1011.6 |
| 20260502230734 | 73 | 269 | 2.0 | 6.0 | 0.00 | 0.02 | 0.02 | 50 | 1011.6 |
| 20260502230228 | 72 | 234 | 3.0 | 9.0 | 0.00 | 0.02 | 0.02 | 51 | 1011.6 |
| 20260502225721 | 72 | 346 | 5.0 | 9.0 | 0.00 | 0.02 | 0.02 | 53 | 1011.6 |
| 20260502225215 | 72 | 275 | 2.0 | 11.0 | 0.00 | 0.02 | 0.02 | 53 | 1011.9 |
| 20260502224935 | 71 | 353 | 5.0 | 11.0 | 0.00 | 0.02 | 0.02 | 54 | 1011.9 |
| 20260502224201 | 71 | 336 | 3.0 | 10.0 | 0.00 | 0.02 | 0.02 | 56 | 1012.2 |
| 20260502223654 | 71 | 330 | 4.0 | 10.0 | 0.00 | 0.02 | 0.02 | 56 | 1011.9 |
| 20260502223147 | 71 | 265 | 3.0 | 8.0 | 0.00 | 0.02 | 0.02 | 55 | 1012.2 |
| 20260502222641 | 72 | 295 | 2.0 | 14.0 | 0.00 | 0.02 | 0.02 | 55 | 1012.2 |
| 20260502222134 | 70 | 222 | 2.0 | 14.0 | 0.00 | 0.02 | 0.02 | 59 | 1012.2 |
| 20260502221627 | 70 | 324 | 4.0 | 11.0 | 0.00 | 0.02 | 0.02 | 59 | 1012.2 |
| 20260502221121 | 70 | 165 | 1.0 | 11.0 | 0.00 | 0.02 | 0.02 | 60 | 1012.6 |
| 20260502220614 | 69 | 225 | 1.0 | 9.0 | 0.00 | 0.02 | 0.02 | 61 | 1012.2 |
| 20260502220108 | 70 | 332 | 6.0 | 9.0 | 0.00 | 0.02 | 0.02 | 59 | 1012.6 |
| 20260502215601 | 72 | 359 | 3.0 | 8.0 | 0.00 | 0.02 | 0.02 | 57 | 1012.6 |
| 20260502215314 | 71 | 327 | 5.0 | 8.0 | 0.00 | 0.02 | 0.02 | 56 | 1012.6 |
| 20260502214547 | 71 | 217 | 1.0 | 6.0 | 0.00 | 0.02 | 0.02 | 56 | 1012.6 |
| 20260502214041 | 71 | 23 | 5.0 | 6.0 | 0.00 | 0.02 | 0.02 | 59 | 1012.2 |
| 20260502214024 | 71 | 303 | 3.0 | 9.0 | 0.00 | 0.02 | 0.02 | 58 | 1012.6 |
| 20260502213028 | 70 | 204 | 1.0 | 9.0 | 0.00 | 0.02 | 0.02 | 61 | 1012.6 |
| 20260502212520 | 70 | 281 | 3.0 | 7.0 | 0.00 | 0.02 | 0.02 | 59 | 1012.9 |
| 20260502212014 | 71 | 347 | 4.0 | 8.0 | 0.00 | 0.02 | 0.02 | 59 | 1012.6 |
| 20260502212003 | 70 | 207 | 0.0 | 10.0 | 0.00 | 0.02 | 0.02 | 62 | 1012.9 |
| 20260502211001 | 69 | 335 | 8.0 | 10.0 | 0.00 | 0.02 | 0.02 | 62 | 1012.9 |
| 20260502210454 | 69 | 250 | 1.0 | 10.0 | 0.00 | 0.02 | 0.02 | 62 | 1012.9 |
| 20260502205946 | 70 | 352 | 5.0 | 9.0 | 0.00 | 0.02 | 0.02 | 61 | 1012.9 |
| 20260502205708 | 68 | 217 | 1.0 | 9.0 | 0.00 | 0.02 | 0.02 | 65 | 1013.3 |
| 20260502204933 | 68 | 73 | 4.0 | 9.0 | 0.00 | 0.02 | 0.02 | 64 | 1013.3 |
| 20260502204426 | 68 | 317 | 2.0 | 8.0 | 0.00 | 0.02 | 0.02 | 64 | 1013.3 |
| 20260502204145 | 68 | 340 | 1.0 | 8.0 | 0.00 | 0.02 | 0.02 | 65 | 1012.9 |
| 20260502203413 | 67 | 347 | 5.0 | 8.0 | 0.00 | 0.02 | 0.02 | 65 | 1012.9 |
| 20260502202906 | 68 | 209 | 2.0 | 9.0 | 0.00 | 0.02 | 0.02 | 65 | 1013.3 |